sensor_id;sensor_type;location;lat;lon;timestamp;P1;durP1;ratioP1;P2;durP2;ratioP2
31210;SDS011;17836;50.948;3.946;2023-04-03T00:01:10;13.10;;;11.65;;
31210;SDS011;17836;50.948;3.946;2023-04-03T00:03:35;18.55;;;12.80;;
31210;SDS011;17836;50.948;3.946;2023-04-03T00:06:01;13.68;;;12.30;;
31210;SDS011;17836;50.948;3.946;2023-04-03T00:08:27;14.20;;;11.90;;
31210;SDS011;17836;50.948;3.946;2023-04-03T00:10:55;16.10;;;13.15;;
31210;SDS011;17836;50.948;3.946;2023-04-03T00:13:20;17.25;;;15.10;;
31210;SDS011;17836;50.948;3.946;2023-04-03T00:15:46;14.95;;;13.52;;
31210;SDS011;17836;50.948;3.946;2023-04-03T00:18:11;15.43;;;13.80;;
31210;SDS011;17836;50.948;3.946;2023-04-03T00:20:36;18.38;;;13.40;;
31210;SDS011;17836;50.948;3.946;2023-04-03T00:23:02;16.15;;;13.90;;
31210;SDS011;17836;50.948;3.946;2023-04-03T00:25:27;16.73;;;14.93;;
31210;SDS011;17836;50.948;3.946;2023-04-03T00:27:53;18.40;;;15.23;;
31210;SDS011;17836;50.948;3.946;2023-04-03T00:30:19;18.75;;;15.35;;
31210;SDS011;17836;50.948;3.946;2023-04-03T00:32:45;19.98;;;16.60;;
31210;SDS011;17836;50.948;3.946;2023-04-03T00:35:10;16.10;;;14.43;;
31210;SDS011;17836;50.948;3.946;2023-04-03T00:37:40;22.38;;;16.42;;
31210;SDS011;17836;50.948;3.946;2023-04-03T00:40:06;20.23;;;14.43;;
31210;SDS011;17836;50.948;3.946;2023-04-03T00:42:31;15.65;;;13.38;;
31210;SDS011;17836;50.948;3.946;2023-04-03T00:47:22;15.40;;;13.80;;
31210;SDS011;17836;50.948;3.946;2023-04-03T00:49:48;15.57;;;13.25;;
31210;SDS011;17836;50.948;3.946;2023-04-03T00:52:16;15.98;;;14.18;;
31210;SDS011;17836;50.948;3.946;2023-04-03T00:54:42;18.05;;;13.13;;
31210;SDS011;17836;50.948;3.946;2023-04-03T00:57:08;16.50;;;12.52;;
31210;SDS011;17836;50.948;3.946;2023-04-03T00:59:36;17.42;;;13.07;;
31210;SDS011;17836;50.948;3.946;2023-04-03T01:02:03;15.43;;;12.82;;
31210;SDS011;17836;50.948;3.946;2023-04-03T01:04:33;15.27;;;12.02;;
31210;SDS011;17836;50.948;3.946;2023-04-03T01:07:01;16.58;;;11.57;;
31210;SDS011;17836;50.948;3.946;2023-04-03T01:09:26;13.85;;;11.55;;
31210;SDS011;17836;50.948;3.946;2023-04-03T01:12:12;11.32;;;10.13;;
31210;SDS011;17836;50.948;3.946;2023-04-03T01:14:37;13.10;;;10.93;;
31210;SDS011;17836;50.948;3.946;2023-04-03T01:17:20;13.77;;;10.93;;
31210;SDS011;17836;50.948;3.946;2023-04-03T01:19:50;12.18;;;10.23;;
31210;SDS011;17836;50.948;3.946;2023-04-03T01:22:23;12.43;;;10.90;;
31210;SDS011;17836;50.948;3.946;2023-04-03T01:24:54;11.38;;;10.23;;
31210;SDS011;17836;50.948;3.946;2023-04-03T01:27:20;12.93;;;10.75;;
31210;SDS011;17836;50.948;3.946;2023-04-03T01:29:48;12.40;;;10.40;;
31210;SDS011;17836;50.948;3.946;2023-04-03T01:32:13;14.35;;;10.65;;
31210;SDS011;17836;50.948;3.946;2023-04-03T01:34:38;10.88;;;9.80;;
31210;SDS011;17836;50.948;3.946;2023-04-03T01:37:04;12.05;;;10.68;;
31210;SDS011;17836;50.948;3.946;2023-04-03T01:39:29;10.93;;;9.93;;
31210;SDS011;17836;50.948;3.946;2023-04-03T01:41:54;11.10;;;9.38;;
31210;SDS011;17836;50.948;3.946;2023-04-03T01:44:20;11.75;;;9.65;;
31210;SDS011;17836;50.948;3.946;2023-04-03T01:46:45;11.73;;;9.68;;
31210;SDS011;17836;50.948;3.946;2023-04-03T01:49:11;11.90;;;9.70;;
31210;SDS011;17836;50.948;3.946;2023-04-03T01:51:36;10.40;;;9.40;;
31210;SDS011;17836;50.948;3.946;2023-04-03T01:54:04;13.43;;;9.93;;
31210;SDS011;17836;50.948;3.946;2023-04-03T01:56:29;11.07;;;8.75;;
31210;SDS011;17836;50.948;3.946;2023-04-03T01:58:57;13.07;;;9.48;;
31210;SDS011;17836;50.948;3.946;2023-04-03T02:01:23;12.55;;;9.93;;
31210;SDS011;17836;50.948;3.946;2023-04-03T02:03:48;14.55;;;10.10;;
31210;SDS011;17836;50.948;3.946;2023-04-03T02:06:13;9.18;;;8.35;;
31210;SDS011;17836;50.948;3.946;2023-04-03T02:08:38;11.63;;;8.63;;
31210;SDS011;17836;50.948;3.946;2023-04-03T02:11:04;10.57;;;9.55;;
31210;SDS011;17836;50.948;3.946;2023-04-03T02:13:29;11.95;;;8.85;;
31210;SDS011;17836;50.948;3.946;2023-04-03T02:15:55;11.80;;;9.57;;
31210;SDS011;17836;50.948;3.946;2023-04-03T02:18:25;14.00;;;8.68;;
31210;SDS011;17836;50.948;3.946;2023-04-03T02:20:50;14.00;;;9.13;;
31210;SDS011;17836;50.948;3.946;2023-04-03T02:23:15;10.10;;;8.88;;
31210;SDS011;17836;50.948;3.946;2023-04-03T02:25:41;10.80;;;8.95;;
31210;SDS011;17836;50.948;3.946;2023-04-03T02:28:06;10.68;;;8.88;;
31210;SDS011;17836;50.948;3.946;2023-04-03T02:30:31;11.88;;;8.63;;
31210;SDS011;17836;50.948;3.946;2023-04-03T02:32:56;10.38;;;9.02;;
31210;SDS011;17836;50.948;3.946;2023-04-03T02:35:24;10.57;;;9.52;;
31210;SDS011;17836;50.948;3.946;2023-04-03T02:37:50;9.82;;;8.77;;
31210;SDS011;17836;50.948;3.946;2023-04-03T02:40:16;10.82;;;8.95;;
31210;SDS011;17836;50.948;3.946;2023-04-03T02:42:41;11.90;;;8.75;;
31210;SDS011;17836;50.948;3.946;2023-04-03T02:45:06;12.07;;;9.07;;
31210;SDS011;17836;50.948;3.946;2023-04-03T02:47:32;10.02;;;8.70;;
31210;SDS011;17836;50.948;3.946;2023-04-03T02:49:57;12.10;;;8.85;;
31210;SDS011;17836;50.948;3.946;2023-04-03T02:52:22;12.00;;;9.10;;
31210;SDS011;17836;50.948;3.946;2023-04-03T02:54:50;13.90;;;9.27;;
31210;SDS011;17836;50.948;3.946;2023-04-03T02:57:15;10.77;;;9.73;;
31210;SDS011;17836;50.948;3.946;2023-04-03T02:59:40;12.98;;;9.50;;
31210;SDS011;17836;50.948;3.946;2023-04-03T03:02:09;18.70;;;9.57;;
31210;SDS011;17836;50.948;3.946;2023-04-03T03:04:34;12.98;;;9.32;;
31210;SDS011;17836;50.948;3.946;2023-04-03T03:07:00;12.70;;;9.30;;
31210;SDS011;17836;50.948;3.946;2023-04-03T03:09:25;13.48;;;10.13;;
31210;SDS011;17836;50.948;3.946;2023-04-03T03:11:51;9.90;;;8.60;;
31210;SDS011;17836;50.948;3.946;2023-04-03T03:14:17;13.13;;;9.63;;
31210;SDS011;17836;50.948;3.946;2023-04-03T03:16:42;12.15;;;9.70;;
31210;SDS011;17836;50.948;3.946;2023-04-03T03:19:10;12.52;;;9.70;;
31210;SDS011;17836;50.948;3.946;2023-04-03T03:21:35;18.65;;;10.45;;
31210;SDS011;17836;50.948;3.946;2023-04-03T03:24:00;16.23;;;10.93;;
31210;SDS011;17836;50.948;3.946;2023-04-03T03:26:26;13.52;;;10.93;;
31210;SDS011;17836;50.948;3.946;2023-04-03T03:28:51;12.35;;;9.95;;
31210;SDS011;17836;50.948;3.946;2023-04-03T03:31:16;14.18;;;9.52;;
31210;SDS011;17836;50.948;3.946;2023-04-03T03:33:42;14.23;;;9.60;;
31210;SDS011;17836;50.948;3.946;2023-04-03T03:36:07;12.32;;;11.02;;
31210;SDS011;17836;50.948;3.946;2023-04-03T03:38:32;9.70;;;8.85;;
31210;SDS011;17836;50.948;3.946;2023-04-03T03:40:57;9.90;;;8.73;;
31210;SDS011;17836;50.948;3.946;2023-04-03T03:43:23;11.80;;;9.75;;
31210;SDS011;17836;50.948;3.946;2023-04-03T03:45:51;10.60;;;9.52;;
31210;SDS011;17836;50.948;3.946;2023-04-03T03:48:17;14.52;;;9.75;;
31210;SDS011;17836;50.948;3.946;2023-04-03T03:50:43;10.13;;;9.13;;
31210;SDS011;17836;50.948;3.946;2023-04-03T03:53:08;9.85;;;9.05;;
31210;SDS011;17836;50.948;3.946;2023-04-03T03:55:33;12.07;;;8.68;;
31210;SDS011;17836;50.948;3.946;2023-04-03T03:57:58;12.25;;;9.70;;
31210;SDS011;17836;50.948;3.946;2023-04-03T04:00:26;10.18;;;9.10;;
31210;SDS011;17836;50.948;3.946;2023-04-03T04:02:51;10.88;;;9.88;;
31210;SDS011;17836;50.948;3.946;2023-04-03T04:05:16;13.82;;;10.00;;
31210;SDS011;17836;50.948;3.946;2023-04-03T04:07:41;12.93;;;9.95;;
31210;SDS011;17836;50.948;3.946;2023-04-03T04:10:09;11.82;;;10.30;;
31210;SDS011;17836;50.948;3.946;2023-04-03T04:12:34;11.05;;;9.55;;
31210;SDS011;17836;50.948;3.946;2023-04-03T04:15:00;12.77;;;9.57;;
31210;SDS011;17836;50.948;3.946;2023-04-03T04:17:26;10.50;;;9.20;;
31210;SDS011;17836;50.948;3.946;2023-04-03T04:19:53;11.60;;;10.45;;
31210;SDS011;17836;50.948;3.946;2023-04-03T04:22:18;13.05;;;10.32;;
31210;SDS011;17836;50.948;3.946;2023-04-03T04:24:44;11.13;;;9.20;;
31210;SDS011;17836;50.948;3.946;2023-04-03T04:27:09;12.65;;;9.95;;
31210;SDS011;17836;50.948;3.946;2023-04-03T04:29:37;15.93;;;9.98;;
31210;SDS011;17836;50.948;3.946;2023-04-03T04:32:02;10.52;;;9.27;;
31210;SDS011;17836;50.948;3.946;2023-04-03T04:34:28;12.80;;;9.25;;
31210;SDS011;17836;50.948;3.946;2023-04-03T04:36:53;12.05;;;9.15;;
31210;SDS011;17836;50.948;3.946;2023-04-03T04:39:19;10.57;;;9.15;;
31210;SDS011;17836;50.948;3.946;2023-04-03T04:41:44;10.60;;;9.05;;
31210;SDS011;17836;50.948;3.946;2023-04-03T04:44:12;10.52;;;8.77;;
31210;SDS011;17836;50.948;3.946;2023-04-03T04:46:40;10.43;;;9.52;;
31210;SDS011;17836;50.948;3.946;2023-04-03T04:49:07;13.05;;;9.73;;
31210;SDS011;17836;50.948;3.946;2023-04-03T04:51:33;27.55;;;11.35;;
31210;SDS011;17836;50.948;3.946;2023-04-03T04:53:58;10.57;;;9.30;;
31210;SDS011;17836;50.948;3.946;2023-04-03T04:56:28;10.30;;;9.10;;
31210;SDS011;17836;50.948;3.946;2023-04-03T04:58:53;10.07;;;9.07;;
31210;SDS011;17836;50.948;3.946;2023-04-03T05:01:18;12.50;;;9.60;;
31210;SDS011;17836;50.948;3.946;2023-04-03T05:03:48;10.52;;;9.30;;
31210;SDS011;17836;50.948;3.946;2023-04-03T05:06:13;12.32;;;9.73;;
31210;SDS011;17836;50.948;3.946;2023-04-03T05:08:41;10.35;;;9.35;;
31210;SDS011;17836;50.948;3.946;2023-04-03T05:11:09;10.47;;;9.50;;
31210;SDS011;17836;50.948;3.946;2023-04-03T05:13:36;11.88;;;9.32;;
31210;SDS011;17836;50.948;3.946;2023-04-03T05:16:04;10.48;;;9.18;;
31210;SDS011;17836;50.948;3.946;2023-04-03T05:18:32;10.00;;;9.10;;
31210;SDS011;17836;50.948;3.946;2023-04-03T05:20:57;14.48;;;10.45;;
31210;SDS011;17836;50.948;3.946;2023-04-03T05:23:23;12.07;;;9.95;;
31210;SDS011;17836;50.948;3.946;2023-04-03T05:25:48;11.77;;;9.93;;
31210;SDS011;17836;50.948;3.946;2023-04-03T05:28:14;10.60;;;9.57;;
31210;SDS011;17836;50.948;3.946;2023-04-03T05:30:39;10.95;;;9.93;;
31210;SDS011;17836;50.948;3.946;2023-04-03T05:33:07;13.38;;;10.80;;
31210;SDS011;17836;50.948;3.946;2023-04-03T05:35:35;11.48;;;10.25;;
31210;SDS011;17836;50.948;3.946;2023-04-03T05:38:01;16.52;;;10.63;;
31210;SDS011;17836;50.948;3.946;2023-04-03T05:40:26;12.40;;;9.23;;
31210;SDS011;17836;50.948;3.946;2023-04-03T05:42:54;27.35;;;10.95;;
31210;SDS011;17836;50.948;3.946;2023-04-03T05:45:21;11.15;;;9.65;;
31210;SDS011;17836;50.948;3.946;2023-04-03T05:47:47;11.73;;;9.90;;
31210;SDS011;17836;50.948;3.946;2023-04-03T05:50:12;14.77;;;10.23;;
31210;SDS011;17836;50.948;3.946;2023-04-03T05:52:38;14.25;;;10.85;;
31210;SDS011;17836;50.948;3.946;2023-04-03T05:55:06;16.20;;;10.63;;
31210;SDS011;17836;50.948;3.946;2023-04-03T05:57:32;12.65;;;10.32;;
31210;SDS011;17836;50.948;3.946;2023-04-03T05:59:57;20.13;;;11.35;;
31210;SDS011;17836;50.948;3.946;2023-04-03T06:02:23;14.63;;;10.27;;
31210;SDS011;17836;50.948;3.946;2023-04-03T06:04:48;13.73;;;10.55;;
31210;SDS011;17836;50.948;3.946;2023-04-03T06:07:17;15.73;;;10.95;;
31210;SDS011;17836;50.948;3.946;2023-04-03T06:09:42;14.98;;;11.30;;
31210;SDS011;17836;50.948;3.946;2023-04-03T06:12:10;18.05;;;12.07;;
31210;SDS011;17836;50.948;3.946;2023-04-03T06:14:36;13.63;;;11.65;;
31210;SDS011;17836;50.948;3.946;2023-04-03T06:17:01;21.35;;;13.18;;
31210;SDS011;17836;50.948;3.946;2023-04-03T06:19:27;26.52;;;13.35;;
31210;SDS011;17836;50.948;3.946;2023-04-03T06:21:52;18.60;;;13.32;;
31210;SDS011;17836;50.948;3.946;2023-04-03T06:24:18;18.48;;;14.48;;
31210;SDS011;17836;50.948;3.946;2023-04-03T06:26:45;19.15;;;13.07;;
31210;SDS011;17836;50.948;3.946;2023-04-03T06:29:13;16.85;;;14.45;;
31210;SDS011;17836;50.948;3.946;2023-04-03T06:31:38;19.50;;;14.50;;
31210;SDS011;17836;50.948;3.946;2023-04-03T06:34:03;21.52;;;15.02;;
31210;SDS011;17836;50.948;3.946;2023-04-03T06:36:29;25.52;;;15.93;;
31210;SDS011;17836;50.948;3.946;2023-04-03T06:38:55;21.52;;;14.95;;
31210;SDS011;17836;50.948;3.946;2023-04-03T06:41:22;22.08;;;16.08;;
31210;SDS011;17836;50.948;3.946;2023-04-03T06:43:50;18.35;;;15.40;;
31210;SDS011;17836;50.948;3.946;2023-04-03T06:46:18;19.80;;;14.45;;
31210;SDS011;17836;50.948;3.946;2023-04-03T06:48:44;22.13;;;16.15;;
31210;SDS011;17836;50.948;3.946;2023-04-03T06:51:13;16.02;;;14.35;;
31210;SDS011;17836;50.948;3.946;2023-04-03T06:53:40;22.40;;;16.55;;
31210;SDS011;17836;50.948;3.946;2023-04-03T06:56:05;16.20;;;14.20;;
31210;SDS011;17836;50.948;3.946;2023-04-03T06:58:31;17.48;;;15.45;;
31210;SDS011;17836;50.948;3.946;2023-04-03T07:00:56;15.85;;;14.27;;
31210;SDS011;17836;50.948;3.946;2023-04-03T07:03:27;16.63;;;14.55;;
31210;SDS011;17836;50.948;3.946;2023-04-03T07:05:52;15.75;;;14.10;;
31210;SDS011;17836;50.948;3.946;2023-04-03T07:08:18;19.17;;;14.17;;
31210;SDS011;17836;50.948;3.946;2023-04-03T07:10:43;14.70;;;13.10;;
31210;SDS011;17836;50.948;3.946;2023-04-03T07:13:10;17.55;;;13.95;;
31210;SDS011;17836;50.948;3.946;2023-04-03T07:15:36;16.48;;;13.68;;
31210;SDS011;17836;50.948;3.946;2023-04-03T07:18:01;14.80;;;13.20;;
31210;SDS011;17836;50.948;3.946;2023-04-03T07:20:27;14.52;;;13.05;;
31210;SDS011;17836;50.948;3.946;2023-04-03T07:22:52;16.90;;;13.13;;
31210;SDS011;17836;50.948;3.946;2023-04-03T07:25:18;14.00;;;12.55;;
31210;SDS011;17836;50.948;3.946;2023-04-03T07:27:43;15.23;;;11.70;;
31210;SDS011;17836;50.948;3.946;2023-04-03T07:30:08;14.35;;;12.15;;
31210;SDS011;17836;50.948;3.946;2023-04-03T07:32:39;12.63;;;11.40;;
31210;SDS011;17836;50.948;3.946;2023-04-03T07:35:04;13.85;;;10.60;;
31210;SDS011;17836;50.948;3.946;2023-04-03T07:37:29;15.55;;;11.27;;
31210;SDS011;17836;50.948;3.946;2023-04-03T07:39:55;13.25;;;9.80;;
31210;SDS011;17836;50.948;3.946;2023-04-03T07:42:22;10.00;;;9.00;;
31210;SDS011;17836;50.948;3.946;2023-04-03T07:44:47;9.68;;;8.88;;
31210;SDS011;17836;50.948;3.946;2023-04-03T07:47:17;11.52;;;7.70;;
31210;SDS011;17836;50.948;3.946;2023-04-03T07:49:43;11.00;;;8.05;;
31210;SDS011;17836;50.948;3.946;2023-04-03T07:52:12;8.68;;;7.82;;
31210;SDS011;17836;50.948;3.946;2023-04-03T07:54:40;9.93;;;7.65;;
31210;SDS011;17836;50.948;3.946;2023-04-03T07:57:05;8.57;;;7.50;;
31210;SDS011;17836;50.948;3.946;2023-04-03T07:59:31;8.75;;;7.82;;
31210;SDS011;17836;50.948;3.946;2023-04-03T08:01:56;10.45;;;7.28;;
31210;SDS011;17836;50.948;3.946;2023-04-03T08:04:24;9.60;;;6.20;;
31210;SDS011;17836;50.948;3.946;2023-04-03T08:06:51;9.05;;;7.13;;
31210;SDS011;17836;50.948;3.946;2023-04-03T08:09:16;10.20;;;6.55;;
31210;SDS011;17836;50.948;3.946;2023-04-03T08:11:42;8.37;;;6.63;;
31210;SDS011;17836;50.948;3.946;2023-04-03T08:14:07;6.03;;;5.43;;
31210;SDS011;17836;50.948;3.946;2023-04-03T08:16:32;8.30;;;5.68;;
31210;SDS011;17836;50.948;3.946;2023-04-03T08:18:58;8.18;;;6.97;;
31210;SDS011;17836;50.948;3.946;2023-04-03T08:21:25;8.10;;;6.53;;
31210;SDS011;17836;50.948;3.946;2023-04-03T08:23:51;9.32;;;5.82;;
31210;SDS011;17836;50.948;3.946;2023-04-03T08:26:18;10.23;;;6.63;;
31210;SDS011;17836;50.948;3.946;2023-04-03T08:28:43;8.70;;;6.45;;
31210;SDS011;17836;50.948;3.946;2023-04-03T08:31:10;6.97;;;5.78;;
31210;SDS011;17836;50.948;3.946;2023-04-03T08:33:39;6.70;;;5.88;;
31210;SDS011;17836;50.948;3.946;2023-04-03T08:36:05;6.97;;;5.30;;
31210;SDS011;17836;50.948;3.946;2023-04-03T08:38:31;7.97;;;5.72;;
31210;SDS011;17836;50.948;3.946;2023-04-03T08:41:02;9.02;;;5.47;;
31210;SDS011;17836;50.948;3.946;2023-04-03T08:43:33;6.35;;;5.07;;
31210;SDS011;17836;50.948;3.946;2023-04-03T08:46:00;7.78;;;5.95;;
31210;SDS011;17836;50.948;3.946;2023-04-03T08:48:28;10.02;;;5.50;;
31210;SDS011;17836;50.948;3.946;2023-04-03T08:50:59;5.93;;;4.65;;
31210;SDS011;17836;50.948;3.946;2023-04-03T08:53:26;6.63;;;5.10;;
31210;SDS011;17836;50.948;3.946;2023-04-03T08:55:56;7.20;;;5.18;;
31210;SDS011;17836;50.948;3.946;2023-04-03T08:58:29;4.63;;;4.18;;
31210;SDS011;17836;50.948;3.946;2023-04-03T09:00:57;6.25;;;5.10;;
31210;SDS011;17836;50.948;3.946;2023-04-03T09:03:28;5.20;;;4.70;;
31210;SDS011;17836;50.948;3.946;2023-04-03T09:13:34;4.30;;;3.83;;
31210;SDS011;17836;50.948;3.946;2023-04-03T09:16:02;6.53;;;4.30;;
31210;SDS011;17836;50.948;3.946;2023-04-03T09:18:30;5.82;;;4.03;;
31210;SDS011;17836;50.948;3.946;2023-04-03T09:23:59;4.43;;;3.78;;
31210;SDS011;17836;50.948;3.946;2023-04-03T09:26:28;4.32;;;3.72;;
31210;SDS011;17836;50.948;3.946;2023-04-03T09:28:56;6.65;;;3.40;;
31210;SDS011;17836;50.948;3.946;2023-04-03T09:31:26;6.55;;;3.25;;
31210;SDS011;17836;50.948;3.946;2023-04-03T09:33:57;4.55;;;3.28;;
31210;SDS011;17836;50.948;3.946;2023-04-03T09:39:19;6.35;;;3.17;;
31210;SDS011;17836;50.948;3.946;2023-04-03T09:42:01;3.08;;;2.22;;
31210;SDS011;17836;50.948;3.946;2023-04-03T09:44:29;5.50;;;2.50;;
31210;SDS011;17836;50.948;3.946;2023-04-03T09:46:57;6.35;;;3.67;;
31210;SDS011;17836;50.948;3.946;2023-04-03T09:49:25;3.90;;;2.80;;
31210;SDS011;17836;50.948;3.946;2023-04-03T09:51:53;5.22;;;2.47;;
31210;SDS011;17836;50.948;3.946;2023-04-03T09:54:34;5.67;;;3.20;;
31210;SDS011;17836;50.948;3.946;2023-04-03T09:57:12;4.95;;;2.60;;
31210;SDS011;17836;50.948;3.946;2023-04-03T09:59:41;4.43;;;1.90;;
31210;SDS011;17836;50.948;3.946;2023-04-03T10:04:44;10.15;;;2.33;;
31210;SDS011;17836;50.948;3.946;2023-04-03T10:07:26;4.68;;;2.40;;
31210;SDS011;17836;50.948;3.946;2023-04-03T10:09:56;6.13;;;2.88;;
31210;SDS011;17836;50.948;3.946;2023-04-03T10:12:22;4.70;;;2.23;;
31210;SDS011;17836;50.948;3.946;2023-04-03T10:14:58;3.58;;;1.88;;
31210;SDS011;17836;50.948;3.946;2023-04-03T10:17:46;5.53;;;2.97;;
31210;SDS011;17836;50.948;3.946;2023-04-03T10:22:56;4.97;;;2.15;;
31210;SDS011;17836;50.948;3.946;2023-04-03T10:28:03;2.70;;;1.80;;
31210;SDS011;17836;50.948;3.946;2023-04-03T10:30:40;4.38;;;2.28;;
31210;SDS011;17836;50.948;3.946;2023-04-03T10:50:58;3.23;;;2.30;;
31210;SDS011;17836;50.948;3.946;2023-04-03T10:56:17;2.17;;;1.50;;
31210;SDS011;17836;50.948;3.946;2023-04-03T10:58:50;4.57;;;2.10;;
31210;SDS011;17836;50.948;3.946;2023-04-03T11:01:20;4.47;;;1.40;;
31210;SDS011;17836;50.948;3.946;2023-04-03T11:03:58;3.28;;;2.00;;
31210;SDS011;17836;50.948;3.946;2023-04-03T11:06:25;5.97;;;2.15;;
31210;SDS011;17836;50.948;3.946;2023-04-03T11:08:53;2.95;;;1.55;;
31210;SDS011;17836;50.948;3.946;2023-04-03T11:11:30;5.13;;;2.05;;
31210;SDS011;17836;50.948;3.946;2023-04-03T11:16:29;2.55;;;1.63;;
31210;SDS011;17836;50.948;3.946;2023-04-03T11:21:28;2.58;;;1.33;;
31210;SDS011;17836;50.948;3.946;2023-04-03T11:23:56;3.30;;;1.65;;
31210;SDS011;17836;50.948;3.946;2023-04-03T11:26:24;2.92;;;1.63;;
31210;SDS011;17836;50.948;3.946;2023-04-03T11:29:01;3.17;;;1.77;;
31210;SDS011;17836;50.948;3.946;2023-04-03T11:36:26;2.67;;;1.38;;
31210;SDS011;17836;50.948;3.946;2023-04-03T11:38:58;2.72;;;2.13;;
31210;SDS011;17836;50.948;3.946;2023-04-03T11:41:26;4.50;;;2.05;;
31210;SDS011;17836;50.948;3.946;2023-04-03T11:44:00;2.20;;;1.75;;
31210;SDS011;17836;50.948;3.946;2023-04-03T11:51:56;1.85;;;1.20;;
31210;SDS011;17836;50.948;3.946;2023-04-03T11:54:42;2.17;;;1.33;;
31210;SDS011;17836;50.948;3.946;2023-04-03T11:57:22;3.42;;;1.42;;
31210;SDS011;17836;50.948;3.946;2023-04-03T11:59:47;3.05;;;1.48;;
31210;SDS011;17836;50.948;3.946;2023-04-03T12:07:41;4.22;;;2.17;;
31210;SDS011;17836;50.948;3.946;2023-04-03T12:10:14;2.42;;;1.23;;
31210;SDS011;17836;50.948;3.946;2023-04-03T12:12:41;2.15;;;1.63;;
31210;SDS011;17836;50.948;3.946;2023-04-03T12:25:49;3.92;;;1.55;;
31210;SDS011;17836;50.948;3.946;2023-04-03T12:28:14;3.05;;;1.55;;
31210;SDS011;17836;50.948;3.946;2023-04-03T12:30:40;1.90;;;1.52;;
31210;SDS011;17836;50.948;3.946;2023-04-03T12:35:37;2.73;;;1.10;;
31210;SDS011;17836;50.948;3.946;2023-04-03T12:40:43;1.70;;;1.30;;
31210;SDS011;17836;50.948;3.946;2023-04-03T12:45:41;2.65;;;1.45;;
31210;SDS011;17836;50.948;3.946;2023-04-03T12:48:12;2.03;;;1.50;;
31210;SDS011;17836;50.948;3.946;2023-04-03T12:50:39;4.78;;;1.65;;
31210;SDS011;17836;50.948;3.946;2023-04-03T12:53:06;2.22;;;1.73;;
31210;SDS011;17836;50.948;3.946;2023-04-03T12:58:21;5.50;;;1.35;;
31210;SDS011;17836;50.948;3.946;2023-04-03T13:00:46;4.43;;;1.30;;
31210;SDS011;17836;50.948;3.946;2023-04-03T13:03:24;2.42;;;1.10;;
31210;SDS011;17836;50.948;3.946;2023-04-03T13:05:52;2.17;;;1.17;;
31210;SDS011;17836;50.948;3.946;2023-04-03T13:08:17;3.28;;;1.40;;
31210;SDS011;17836;50.948;3.946;2023-04-03T13:10:51;2.90;;;1.00;;
31210;SDS011;17836;50.948;3.946;2023-04-03T13:13:19;3.55;;;1.20;;
31210;SDS011;17836;50.948;3.946;2023-04-03T13:15:48;2.20;;;1.00;;
31210;SDS011;17836;50.948;3.946;2023-04-03T13:18:47;2.38;;;1.25;;
31210;SDS011;17836;50.948;3.946;2023-04-03T13:21:15;2.88;;;1.30;;
31210;SDS011;17836;50.948;3.946;2023-04-03T13:23:43;2.40;;;1.30;;
31210;SDS011;17836;50.948;3.946;2023-04-03T13:26:09;2.80;;;1.00;;
31210;SDS011;17836;50.948;3.946;2023-04-03T13:28:35;1.67;;;0.98;;
31210;SDS011;17836;50.948;3.946;2023-04-03T13:34:28;2.28;;;0.98;;
31210;SDS011;17836;50.948;3.946;2023-04-03T13:36:32;1.80;;;1.33;;
31210;SDS011;17836;50.948;3.946;2023-04-03T13:39:22;1.60;;;0.85;;
31210;SDS011;17836;50.948;3.946;2023-04-03T13:41:47;2.13;;;1.13;;
31210;SDS011;17836;50.948;3.946;2023-04-03T13:49:36;2.42;;;1.15;;
31210;SDS011;17836;50.948;3.946;2023-04-03T13:54:45;1.58;;;0.90;;
31210;SDS011;17836;50.948;3.946;2023-04-03T13:57:15;4.22;;;1.42;;
31210;SDS011;17836;50.948;3.946;2023-04-03T13:59:43;1.48;;;0.90;;
31210;SDS011;17836;50.948;3.946;2023-04-03T14:05:07;2.42;;;0.80;;
31210;SDS011;17836;50.948;3.946;2023-04-03T14:07:33;1.20;;;0.90;;
31210;SDS011;17836;50.948;3.946;2023-04-03T14:09:58;3.47;;;1.20;;
31210;SDS011;17836;50.948;3.946;2023-04-03T14:12:29;1.48;;;1.15;;
31210;SDS011;17836;50.948;3.946;2023-04-03T14:14:56;3.20;;;1.00;;
31210;SDS011;17836;50.948;3.946;2023-04-03T14:17:22;1.87;;;1.20;;
31210;SDS011;17836;50.948;3.946;2023-04-03T14:19:48;1.63;;;1.00;;
31210;SDS011;17836;50.948;3.946;2023-04-03T14:22:16;3.58;;;1.05;;
31210;SDS011;17836;50.948;3.946;2023-04-03T14:24:42;1.63;;;1.08;;
31210;SDS011;17836;50.948;3.946;2023-04-03T14:27:16;2.25;;;1.23;;
31210;SDS011;17836;50.948;3.946;2023-04-03T14:29:42;2.30;;;1.20;;
31210;SDS011;17836;50.948;3.946;2023-04-03T14:32:10;1.95;;;1.20;;
31210;SDS011;17836;50.948;3.946;2023-04-03T14:34:38;2.40;;;1.20;;
31210;SDS011;17836;50.948;3.946;2023-04-03T14:37:04;2.08;;;1.23;;
31210;SDS011;17836;50.948;3.946;2023-04-03T14:39:29;2.15;;;1.13;;
31210;SDS011;17836;50.948;3.946;2023-04-03T14:41:55;3.10;;;1.58;;
31210;SDS011;17836;50.948;3.946;2023-04-03T14:44:20;2.43;;;1.20;;
31210;SDS011;17836;50.948;3.946;2023-04-03T14:46:45;3.20;;;1.27;;
31210;SDS011;17836;50.948;3.946;2023-04-03T14:49:15;1.50;;;1.10;;
31210;SDS011;17836;50.948;3.946;2023-04-03T14:51:43;2.67;;;0.90;;
31210;SDS011;17836;50.948;3.946;2023-04-03T14:54:12;1.52;;;1.13;;
31210;SDS011;17836;50.948;3.946;2023-04-03T14:56:38;2.78;;;1.65;;
31210;SDS011;17836;50.948;3.946;2023-04-03T14:59:04;2.45;;;1.42;;
31210;SDS011;17836;50.948;3.946;2023-04-03T15:01:29;3.47;;;1.25;;
31210;SDS011;17836;50.948;3.946;2023-04-03T15:03:55;2.83;;;1.30;;
31210;SDS011;17836;50.948;3.946;2023-04-03T15:06:22;3.67;;;1.00;;
31210;SDS011;17836;50.948;3.946;2023-04-03T15:08:48;2.75;;;1.20;;
31210;SDS011;17836;50.948;3.946;2023-04-03T15:11:14;1.38;;;1.17;;
31210;SDS011;17836;50.948;3.946;2023-04-03T15:13:39;2.65;;;1.33;;
31210;SDS011;17836;50.948;3.946;2023-04-03T15:16:14;2.60;;;1.80;;
31210;SDS011;17836;50.948;3.946;2023-04-03T15:18:40;2.92;;;1.10;;
31210;SDS011;17836;50.948;3.946;2023-04-03T15:21:06;2.67;;;1.30;;
31210;SDS011;17836;50.948;3.946;2023-04-03T15:23:31;2.00;;;1.27;;
31210;SDS011;17836;50.948;3.946;2023-04-03T15:25:56;2.70;;;1.30;;
31210;SDS011;17836;50.948;3.946;2023-04-03T15:28:28;3.83;;;1.52;;
31210;SDS011;17836;50.948;3.946;2023-04-03T15:30:55;3.33;;;1.47;;
31210;SDS011;17836;50.948;3.946;2023-04-03T15:33:20;2.67;;;1.20;;
31210;SDS011;17836;50.948;3.946;2023-04-03T15:35:45;1.98;;;1.20;;
31210;SDS011;17836;50.948;3.946;2023-04-03T15:38:11;2.00;;;1.48;;
31210;SDS011;17836;50.948;3.946;2023-04-03T15:40:36;2.55;;;1.73;;
31210;SDS011;17836;50.948;3.946;2023-04-03T15:43:01;1.40;;;1.02;;
31210;SDS011;17836;50.948;3.946;2023-04-03T15:45:33;1.20;;;1.00;;
31210;SDS011;17836;50.948;3.946;2023-04-03T15:47:58;3.00;;;1.20;;
31210;SDS011;17836;50.948;3.946;2023-04-03T15:50:24;3.00;;;0.95;;
31210;SDS011;17836;50.948;3.946;2023-04-03T15:52:50;3.50;;;1.27;;
31210;SDS011;17836;50.948;3.946;2023-04-03T15:55:22;1.02;;;0.82;;
31210;SDS011;17836;50.948;3.946;2023-04-03T15:57:48;2.95;;;1.60;;
31210;SDS011;17836;50.948;3.946;2023-04-03T16:00:13;3.20;;;1.50;;
31210;SDS011;17836;50.948;3.946;2023-04-03T16:02:38;3.38;;;1.70;;
31210;SDS011;17836;50.948;3.946;2023-04-03T16:05:04;1.45;;;1.13;;
31210;SDS011;17836;50.948;3.946;2023-04-03T16:07:30;2.33;;;1.00;;
31210;SDS011;17836;50.948;3.946;2023-04-03T16:09:55;1.35;;;1.00;;
31210;SDS011;17836;50.948;3.946;2023-04-03T16:12:21;3.08;;;1.15;;
31210;SDS011;17836;50.948;3.946;2023-04-03T16:14:46;2.70;;;1.30;;
31210;SDS011;17836;50.948;3.946;2023-04-03T16:17:12;1.60;;;1.00;;
31210;SDS011;17836;50.948;3.946;2023-04-03T16:19:37;2.87;;;1.13;;